createdAt,value
2019-03-23T00:00:29.757Z,9.08
2019-03-23T00:02:58.207Z,9.08
2019-03-23T00:05:26.928Z,9.07
2019-03-23T00:07:55.521Z,9.02
2019-03-23T00:10:23.819Z,8.97
2019-03-23T00:12:52.123Z,8.94
2019-03-23T00:15:20.487Z,8.91
2019-03-23T00:17:48.807Z,8.87
2019-03-23T00:20:17.102Z,8.83
2019-03-23T00:22:45.689Z,8.78
2019-03-23T00:25:14.272Z,8.75
2019-03-23T00:27:42.598Z,8.71
2019-03-23T00:30:13.037Z,8.68
2019-03-23T00:32:41.756Z,8.66
2019-03-23T00:35:10.157Z,8.63
2019-03-23T00:37:38.442Z,8.65
2019-03-23T00:40:08.593Z,8.70
2019-03-23T00:42:38.211Z,8.69
2019-03-23T00:45:07.715Z,8.65
2019-03-23T00:47:36.343Z,8.63
2019-03-23T00:50:06.398Z,8.65
2019-03-23T00:52:34.698Z,8.67
2019-03-23T00:55:03.014Z,8.72
2019-03-23T00:57:31.332Z,8.77
2019-03-23T00:59:59.961Z,8.85
2019-03-23T01:02:28.561Z,8.95
2019-03-23T01:04:57.843Z,9.04
2019-03-23T01:07:26.129Z,9.12
2019-03-23T01:09:54.448Z,9.16
2019-03-23T01:12:23.106Z,9.20
2019-03-23T01:14:51.404Z,9.27
2019-03-23T01:17:19.744Z,9.30
2019-03-23T01:19:48.346Z,9.32
2019-03-23T01:22:16.657Z,9.33
2019-03-23T01:24:44.950Z,9.33
2019-03-23T01:27:13.255Z,9.34
2019-03-23T01:29:41.548Z,9.34
2019-03-23T01:32:09.881Z,9.34
2019-03-23T01:34:38.183Z,9.34
2019-03-23T01:37:06.510Z,9.33
2019-03-23T01:39:34.814Z,9.33
2019-03-23T01:42:03.483Z,9.31
2019-03-23T01:44:32.118Z,9.29
2019-03-23T01:47:00.412Z,9.23
2019-03-23T01:49:28.731Z,9.17
2019-03-23T01:51:57.353Z,9.14
2019-03-23T01:54:25.670Z,9.11
2019-03-23T01:56:53.989Z,9.10
2019-03-23T01:59:22.338Z,9.07
2019-03-23T02:01:50.645Z,9.05
2019-03-23T02:04:18.964Z,9.05
2019-03-23T02:06:47.276Z,9.05
2019-03-23T02:09:15.597Z,9.04
2019-03-23T02:11:43.886Z,8.98
2019-03-23T02:14:12.196Z,8.98
2019-03-23T02:16:40.492Z,8.95
2019-03-23T02:19:08.820Z,8.95
2019-03-23T02:21:37.385Z,8.95
2019-03-23T02:24:05.713Z,8.96
2019-03-23T02:26:34.042Z,8.97
2019-03-23T02:29:02.364Z,9.00
2019-03-23T02:31:31.015Z,9.00
2019-03-23T02:33:59.387Z,9.01
2019-03-23T02:36:27.773Z,8.98
2019-03-23T02:38:56.104Z,8.96
2019-03-23T02:41:24.406Z,8.94
2019-03-23T02:43:52.716Z,8.93
2019-03-23T02:46:21.028Z,8.88
2019-03-23T02:48:49.341Z,8.84
2019-03-23T02:51:17.655Z,8.78
2019-03-23T02:53:45.992Z,8.70
2019-03-23T02:56:14.354Z,8.63
2019-03-23T02:58:42.664Z,8.53
2019-03-23T03:01:10.968Z,8.42
2019-03-23T03:03:39.318Z,8.39
2019-03-23T03:06:07.603Z,8.41
2019-03-23T03:08:35.955Z,8.41
2019-03-23T03:11:04.582Z,8.31
2019-03-23T03:13:32.879Z,8.33
2019-03-23T03:16:01.199Z,8.39
2019-03-23T03:18:29.484Z,8.42
2019-03-23T03:20:57.815Z,8.39
2019-03-23T03:23:26.129Z,8.42
2019-03-23T03:25:54.465Z,8.46
2019-03-23T03:28:22.749Z,8.51
2019-03-23T03:30:51.131Z,8.57
2019-03-23T03:33:19.475Z,8.51
2019-03-23T03:35:47.778Z,8.52
2019-03-23T03:38:16.152Z,8.55
2019-03-23T03:40:44.530Z,8.56
2019-03-23T03:43:12.837Z,8.57
2019-03-23T03:45:41.446Z,8.48
2019-03-23T03:48:09.771Z,8.47
2019-03-23T03:50:38.079Z,8.41
2019-03-23T03:53:06.385Z,8.42
2019-03-23T03:55:34.704Z,8.44
2019-03-23T03:58:03.026Z,8.41
2019-03-23T04:00:31.622Z,8.35
2019-03-23T04:02:59.937Z,8.34
2019-03-23T04:05:28.233Z,8.21
2019-03-23T04:08:09.847Z,8.17
2019-03-23T04:10:26.613Z,8.21
2019-03-23T04:12:54.932Z,8.28
2019-03-23T04:15:23.266Z,8.36
2019-03-23T04:17:51.565Z,8.41
2019-03-23T04:20:19.901Z,8.43
2019-03-23T04:22:48.220Z,8.39
2019-03-23T04:25:16.540Z,8.34
2019-03-23T04:27:44.851Z,8.35
2019-03-23T04:30:13.450Z,8.37
2019-03-23T04:32:41.781Z,8.28
2019-03-23T04:35:10.331Z,8.25
2019-03-23T04:37:38.660Z,8.28
2019-03-23T04:40:09.816Z,8.30
2019-03-23T04:42:38.447Z,8.32
2019-03-23T04:45:08.538Z,8.38
2019-03-23T04:47:37.165Z,8.40
2019-03-23T04:50:08.660Z,8.43
2019-03-23T04:52:36.972Z,8.41
2019-03-23T04:55:11.105Z,8.27
2019-03-23T04:57:39.949Z,8.20
2019-03-23T05:00:10.898Z,8.19
2019-03-23T05:02:39.520Z,8.17
2019-03-23T05:05:07.826Z,8.20
2019-03-23T05:07:36.132Z,8.23
2019-03-23T05:10:05.765Z,8.21
2019-03-23T05:12:34.349Z,8.19
2019-03-23T05:15:02.644Z,8.22
2019-03-23T05:17:30.965Z,8.25
2019-03-23T05:19:59.585Z,8.29
2019-03-23T05:22:27.927Z,8.35
2019-03-23T05:24:56.227Z,8.38
2019-03-23T05:27:24.550Z,8.38
2019-03-23T05:29:52.856Z,8.34
2019-03-23T05:32:21.205Z,8.35
2019-03-23T05:34:49.584Z,8.32
2019-03-23T05:37:17.921Z,8.33
2019-03-23T05:39:46.220Z,8.37
2019-03-23T05:42:14.529Z,8.39
2019-03-23T05:44:42.925Z,8.41
2019-03-23T05:47:11.272Z,8.44
2019-03-23T05:49:39.593Z,8.46
2019-03-23T05:52:07.898Z,8.48
2019-03-23T05:54:36.340Z,8.51
2019-03-23T05:57:04.961Z,8.52
2019-03-23T05:59:33.394Z,8.46
2019-03-23T06:02:01.765Z,8.45
2019-03-23T06:04:30.110Z,8.43
2019-03-23T06:06:58.418Z,8.45
2019-03-23T06:09:26.737Z,8.46
2019-03-23T06:11:55.047Z,8.47
2019-03-23T06:14:23.361Z,8.49
2019-03-23T06:16:51.669Z,8.50
2019-03-23T06:19:19.970Z,8.53
2019-03-23T06:21:48.280Z,8.50
2019-03-23T06:24:16.596Z,8.41
2019-03-23T06:26:44.916Z,8.36
2019-03-23T06:29:13.233Z,8.40
2019-03-23T06:31:41.537Z,8.47
2019-03-23T06:34:09.831Z,8.53
2019-03-23T06:36:38.157Z,8.57
2019-03-23T06:39:06.921Z,8.57
2019-03-23T06:41:35.287Z,8.59
2019-03-23T06:44:03.540Z,8.61
2019-03-23T06:46:31.879Z,8.64
2019-03-23T06:49:00.175Z,8.58
2019-03-23T06:51:28.494Z,8.61
2019-03-23T06:53:56.881Z,8.59
2019-03-23T06:56:25.204Z,8.66
2019-03-23T06:58:53.567Z,8.71
2019-03-23T07:01:22.208Z,8.78
2019-03-23T07:03:50.524Z,8.82
2019-03-23T07:06:18.838Z,8.82
2019-03-23T07:08:47.134Z,8.83
2019-03-23T07:11:15.459Z,8.87
2019-03-23T07:13:43.765Z,8.89
2019-03-23T07:16:12.087Z,8.95
2019-03-23T07:18:40.396Z,8.99
2019-03-23T07:21:09.014Z,9.02
2019-03-23T07:23:37.333Z,9.03
2019-03-23T07:26:05.640Z,9.07
2019-03-23T07:28:33.952Z,9.09
2019-03-23T07:31:02.533Z,9.10
2019-03-23T07:33:30.866Z,9.14
2019-03-23T07:35:59.174Z,9.12
2019-03-23T07:38:27.479Z,9.14
2019-03-23T07:40:55.874Z,9.15
2019-03-23T07:43:24.192Z,9.18
2019-03-23T07:45:52.487Z,9.21
2019-03-23T07:48:20.808Z,9.25
2019-03-23T07:50:49.098Z,9.30
2019-03-23T07:53:17.419Z,9.34
2019-03-23T07:55:45.734Z,9.37
2019-03-23T07:58:14.385Z,9.42
2019-03-23T08:00:42.673Z,9.49
2019-03-23T08:03:11.351Z,9.52
2019-03-23T08:05:39.683Z,9.58
2019-03-23T08:08:08.017Z,9.68
2019-03-23T08:10:36.584Z,9.74
2019-03-23T08:13:05.166Z,9.82
2019-03-23T08:15:33.643Z,9.91
2019-03-23T08:18:02.012Z,9.91
2019-03-23T08:20:30.325Z,10.00
2019-03-23T08:22:58.631Z,10.08
2019-03-23T08:25:26.963Z,10.11
2019-03-23T08:27:55.272Z,10.16
2019-03-23T08:30:23.628Z,10.22
2019-03-23T08:32:52.042Z,10.26
2019-03-23T08:35:20.372Z,10.24
2019-03-23T08:37:48.672Z,10.27
2019-03-23T08:40:16.985Z,10.32
2019-03-23T08:42:45.361Z,10.31
2019-03-23T08:45:13.826Z,10.33
2019-03-23T08:47:42.155Z,10.34
2019-03-23T08:50:10.743Z,10.38
2019-03-23T08:52:39.064Z,10.37
2019-03-23T08:55:07.394Z,10.36
2019-03-23T08:57:35.712Z,10.33
2019-03-23T09:00:06.220Z,10.35
2019-03-23T09:02:34.555Z,10.35
2019-03-23T09:05:02.850Z,10.34
2019-03-23T09:07:31.187Z,10.38
2019-03-23T09:09:59.666Z,10.43
2019-03-23T09:12:28.040Z,10.42
2019-03-23T09:14:56.351Z,10.40
2019-03-23T09:17:24.979Z,10.42
2019-03-23T09:19:53.311Z,10.47
2019-03-23T09:22:21.619Z,10.50
2019-03-23T09:24:49.937Z,10.54
2019-03-23T09:27:18.233Z,10.58
2019-03-23T09:29:46.857Z,10.73
2019-03-23T09:32:15.436Z,10.84
2019-03-23T09:34:43.739Z,10.92
2019-03-23T09:37:12.133Z,11.03
2019-03-23T09:39:40.816Z,11.15
2019-03-23T09:42:09.315Z,11.27
2019-03-23T09:44:37.712Z,11.40
2019-03-23T09:47:06.044Z,11.53
2019-03-23T09:49:34.341Z,11.66
2019-03-23T09:52:02.681Z,11.76
2019-03-23T09:54:30.994Z,11.82
2019-03-23T09:56:59.666Z,11.93
2019-03-23T09:59:28.057Z,12.05
2019-03-23T10:01:56.393Z,12.11
2019-03-23T10:04:24.691Z,12.08
2019-03-23T10:06:52.994Z,12.08
2019-03-23T10:09:21.623Z,12.11
2019-03-23T10:11:50.206Z,12.02
2019-03-23T10:14:18.576Z,11.95
2019-03-23T10:16:47.123Z,11.94
2019-03-23T10:19:15.434Z,11.97
2019-03-23T10:21:43.732Z,11.93
2019-03-23T10:24:12.073Z,11.94
2019-03-23T10:26:40.379Z,11.95
2019-03-23T10:29:08.720Z,11.96
2019-03-23T10:31:37.018Z,12.08
2019-03-23T10:34:05.348Z,12.27
2019-03-23T10:36:33.733Z,12.48
2019-03-23T10:39:02.300Z,12.70
2019-03-23T10:41:30.628Z,12.92
2019-03-23T10:43:58.956Z,13.03
2019-03-23T10:46:27.521Z,13.08
2019-03-23T10:48:55.850Z,13.13
2019-03-23T10:51:24.157Z,13.16
2019-03-23T10:53:52.484Z,13.29
2019-03-23T10:56:20.775Z,13.38
2019-03-23T10:58:49.091Z,13.50
2019-03-23T11:01:17.385Z,13.60
2019-03-23T11:03:45.696Z,13.69
2019-03-23T11:06:14.018Z,13.71
2019-03-23T11:08:42.643Z,13.72
2019-03-23T11:11:11.295Z,13.81
2019-03-23T11:13:39.713Z,13.86
2019-03-23T11:16:08.377Z,13.86
2019-03-23T11:18:37.882Z,13.97
2019-03-23T11:21:06.267Z,14.04
2019-03-23T11:23:34.577Z,14.07
2019-03-23T11:26:02.900Z,14.03
2019-03-23T11:28:31.207Z,14.03
2019-03-23T11:31:00.168Z,14.13
2019-03-23T11:33:28.472Z,14.12
2019-03-23T11:35:58.050Z,14.05
2019-03-23T11:38:26.849Z,14.04
2019-03-23T11:40:55.492Z,14.12
2019-03-23T11:43:23.759Z,14.15
2019-03-23T11:45:52.052Z,14.20
2019-03-23T11:48:20.371Z,14.24
2019-03-23T11:50:48.677Z,14.11
2019-03-23T11:53:17.018Z,13.91
2019-03-23T11:55:45.332Z,13.77
2019-03-23T11:58:13.973Z,13.69
2019-03-23T12:00:42.397Z,13.61
2019-03-23T12:03:10.753Z,13.60
2019-03-23T12:05:39.052Z,13.62
2019-03-23T12:08:07.383Z,13.57
2019-03-23T12:10:35.677Z,13.71
2019-03-23T12:13:04.454Z,13.91
2019-03-23T12:15:32.766Z,14.15
2019-03-23T12:18:01.079Z,14.27
2019-03-23T12:20:29.420Z,14.46
2019-03-23T12:22:57.707Z,14.49
2019-03-23T12:25:26.042Z,14.51
2019-03-23T12:27:54.346Z,14.60
2019-03-23T12:30:23.056Z,14.79
2019-03-23T12:32:51.355Z,14.90
2019-03-23T12:35:19.695Z,14.88
2019-03-23T12:37:48.254Z,14.90
2019-03-23T12:40:16.573Z,14.86
2019-03-23T12:42:44.880Z,14.97
2019-03-23T12:45:13.381Z,15.03
2019-03-23T12:47:41.997Z,14.98
2019-03-23T12:50:11.375Z,14.85
2019-03-23T12:52:39.662Z,14.77
2019-03-23T12:55:08.524Z,14.71
2019-03-23T12:57:36.836Z,14.79
2019-03-23T13:00:08.665Z,14.93
2019-03-23T13:02:36.986Z,14.99
2019-03-23T13:05:06.734Z,15.07
2019-03-23T13:07:35.044Z,15.21
2019-03-23T13:10:04.209Z,15.33
2019-03-23T13:12:32.527Z,15.35
2019-03-23T13:15:00.833Z,15.40
2019-03-23T13:17:29.148Z,15.44
2019-03-23T13:19:57.531Z,15.58
2019-03-23T13:22:25.856Z,15.68
2019-03-23T13:24:54.238Z,15.74
2019-03-23T13:27:22.565Z,15.69
2019-03-23T13:29:50.868Z,15.57
2019-03-23T13:32:19.196Z,15.63
2019-03-23T13:34:47.496Z,15.68
2019-03-23T13:37:15.806Z,15.61
2019-03-23T13:39:44.208Z,15.54
2019-03-23T13:42:12.565Z,15.52
2019-03-23T13:44:40.876Z,15.43
2019-03-23T13:47:09.171Z,15.25
2019-03-23T13:49:37.767Z,14.99
2019-03-23T13:52:06.077Z,14.95
2019-03-23T13:54:34.393Z,14.94
2019-03-23T13:57:02.699Z,15.01
2019-03-23T13:59:31.112Z,15.03
2019-03-23T14:01:59.767Z,14.94
2019-03-23T14:04:28.070Z,14.88
2019-03-23T14:06:56.726Z,14.83
2019-03-23T14:09:25.034Z,14.79
2019-03-23T14:11:55.292Z,14.63
2019-03-23T14:14:23.464Z,14.59
2019-03-23T14:16:52.092Z,14.57
2019-03-23T14:19:20.404Z,14.63
2019-03-23T14:21:48.730Z,14.66
2019-03-23T14:24:17.041Z,14.62
2019-03-23T14:26:45.378Z,14.55
2019-03-23T14:29:13.686Z,14.52
2019-03-23T14:31:42.023Z,14.56
2019-03-23T14:34:10.333Z,14.61
2019-03-23T14:36:38.658Z,14.52
2019-03-23T14:39:07.336Z,14.48
2019-03-23T14:41:35.979Z,14.36
2019-03-23T14:44:04.283Z,14.17
2019-03-23T14:46:32.618Z,14.07
2019-03-23T14:49:01.899Z,14.05
2019-03-23T14:51:30.402Z,14.12
2019-03-23T14:53:59.001Z,14.21
2019-03-23T14:56:31.646Z,14.26
2019-03-23T14:58:57.913Z,14.16
2019-03-23T15:01:26.584Z,14.07
2019-03-23T15:03:55.216Z,14.02
2019-03-23T15:06:23.522Z,14.00
2019-03-23T15:08:51.855Z,13.96
2019-03-23T15:11:20.243Z,13.98
2019-03-23T15:13:48.545Z,13.96
2019-03-23T15:16:16.877Z,13.90
2019-03-23T15:18:45.181Z,13.79
2019-03-23T15:21:13.496Z,13.76
2019-03-23T15:23:42.060Z,13.73
2019-03-23T15:26:10.683Z,13.77
2019-03-23T15:28:39.008Z,13.75
2019-03-23T15:31:07.318Z,13.78
2019-03-23T15:33:35.632Z,13.78
2019-03-23T15:36:03.953Z,13.78
2019-03-23T15:38:32.575Z,13.79
2019-03-23T15:41:00.920Z,13.79
2019-03-23T15:43:29.264Z,13.78
2019-03-23T15:45:57.571Z,13.73
2019-03-23T15:48:25.892Z,13.62
2019-03-23T15:50:54.193Z,13.41
2019-03-23T15:53:22.524Z,13.34
2019-03-23T15:55:50.826Z,13.34
2019-03-23T15:58:19.134Z,13.39
2019-03-23T16:00:47.443Z,13.39
2019-03-23T16:03:15.751Z,13.32
2019-03-23T16:05:44.047Z,13.29
2019-03-23T16:08:12.362Z,13.30
2019-03-23T16:10:41.014Z,13.28
2019-03-23T16:13:09.345Z,13.28
2019-03-23T16:15:37.943Z,13.22
2019-03-23T16:18:06.277Z,13.20
2019-03-23T16:20:34.911Z,13.19
2019-03-23T16:23:03.601Z,13.14
2019-03-23T16:25:31.897Z,13.11
2019-03-23T16:28:00.579Z,13.08
2019-03-23T16:30:30.426Z,13.07
2019-03-23T16:32:58.938Z,13.05
2019-03-23T16:35:27.268Z,12.98
2019-03-23T16:37:55.599Z,12.98
2019-03-23T16:40:23.907Z,12.96
2019-03-23T16:42:52.434Z,12.88
2019-03-23T16:45:20.981Z,12.87
2019-03-23T16:47:49.327Z,12.86
2019-03-23T16:50:17.655Z,12.84
2019-03-23T16:52:45.964Z,12.83
2019-03-23T16:55:14.484Z,12.81
2019-03-23T16:57:42.780Z,12.78
2019-03-23T17:00:15.442Z,12.73
2019-03-23T17:02:44.008Z,12.72
2019-03-23T17:05:12.662Z,12.70
2019-03-23T17:07:40.970Z,12.69
2019-03-23T17:10:09.442Z,12.66
2019-03-23T17:12:37.737Z,12.61
2019-03-23T17:15:07.835Z,12.62
2019-03-23T17:17:36.848Z,12.61
2019-03-23T17:20:05.736Z,12.60
2019-03-23T17:22:34.040Z,12.51
2019-03-23T17:25:02.522Z,12.44
2019-03-23T17:27:30.820Z,12.40
2019-03-23T17:29:59.195Z,12.40
2019-03-23T17:32:27.495Z,12.40
2019-03-23T17:34:55.816Z,12.40
2019-03-23T17:37:24.476Z,12.43
2019-03-23T17:39:52.888Z,12.41
2019-03-23T17:42:21.217Z,12.37
2019-03-23T17:44:49.520Z,12.34
2019-03-23T17:47:17.832Z,12.32
2019-03-23T17:49:46.136Z,12.29
2019-03-23T17:52:14.459Z,12.25
2019-03-23T17:54:42.757Z,12.18
2019-03-23T17:57:11.056Z,12.14
2019-03-23T17:59:39.379Z,12.12
2019-03-23T18:02:07.681Z,12.11
2019-03-23T18:04:36.028Z,12.05
2019-03-23T18:07:04.322Z,12.02
2019-03-23T18:09:32.647Z,11.95
2019-03-23T18:12:00.959Z,11.86
2019-03-23T18:14:29.280Z,11.82
2019-03-23T18:16:57.593Z,11.73
2019-03-23T18:19:26.211Z,11.64
2019-03-23T18:21:54.513Z,11.57
2019-03-23T18:24:22.831Z,11.50
2019-03-23T18:26:51.159Z,11.39
2019-03-23T18:29:19.474Z,11.26
2019-03-23T18:31:48.087Z,11.19
2019-03-23T18:34:16.420Z,11.16
2019-03-23T18:36:44.733Z,11.19
2019-03-23T18:39:13.066Z,11.18
2019-03-23T18:41:41.378Z,11.19
2019-03-23T18:44:16.223Z,11.16
2019-03-23T18:46:40.208Z,11.20
2019-03-23T18:49:08.502Z,11.24
2019-03-23T18:51:37.119Z,11.25
2019-03-23T18:54:05.429Z,11.27
2019-03-23T18:56:33.971Z,11.23
2019-03-23T18:59:02.275Z,11.21
2019-03-23T19:01:30.890Z,11.20
2019-03-23T19:03:59.293Z,11.21
2019-03-23T19:06:27.617Z,11.22
2019-03-23T19:08:55.908Z,11.25
2019-03-23T19:11:24.503Z,11.25
2019-03-23T19:13:52.811Z,11.22
2019-03-23T19:16:21.113Z,11.19
2019-03-23T19:18:49.441Z,11.23
2019-03-23T19:21:18.131Z,11.24
2019-03-23T19:23:46.455Z,11.17
2019-03-23T19:26:14.756Z,11.17
2019-03-23T19:28:43.066Z,11.17
2019-03-23T19:31:11.381Z,11.19
2019-03-23T19:33:39.705Z,11.20
2019-03-23T19:36:08.300Z,11.19
2019-03-23T19:38:36.730Z,11.19
2019-03-23T19:41:05.662Z,11.22
2019-03-23T19:43:34.055Z,11.23
2019-03-23T19:46:02.383Z,11.23
2019-03-23T19:48:30.690Z,11.25
2019-03-23T19:50:59.020Z,11.25
2019-03-23T19:53:27.352Z,11.23
2019-03-23T19:55:55.660Z,11.19
2019-03-23T19:58:23.962Z,11.11
2019-03-23T20:00:52.296Z,11.15
2019-03-23T20:03:20.862Z,11.14
2019-03-23T20:05:49.249Z,11.11
2019-03-23T20:08:17.558Z,11.13
2019-03-23T20:10:45.890Z,11.10
2019-03-23T20:13:14.188Z,11.09
2019-03-23T20:15:42.521Z,11.04
2019-03-23T20:18:10.824Z,10.98
2019-03-23T20:20:39.140Z,10.83
2019-03-23T20:23:07.461Z,10.74
2019-03-23T20:25:35.778Z,10.63
2019-03-23T20:28:04.075Z,10.60
2019-03-23T20:30:32.420Z,10.64
2019-03-23T20:33:00.741Z,10.67
2019-03-23T20:35:29.032Z,10.61
2019-03-23T20:37:57.349Z,10.62
2019-03-23T20:40:25.659Z,10.64
2019-03-23T20:42:53.984Z,10.64
2019-03-23T20:45:27.556Z,10.64
2019-03-23T20:47:56.200Z,10.64
2019-03-23T20:50:24.502Z,10.61
2019-03-23T20:52:52.829Z,10.61
2019-03-23T20:55:28.522Z,10.62
2019-03-23T20:57:56.867Z,10.55
2019-03-23T21:00:25.181Z,10.49
2019-03-23T21:02:53.510Z,10.52
2019-03-23T21:05:33.200Z,10.56
2019-03-23T21:07:52.110Z,10.51
2019-03-23T21:10:21.360Z,10.45
2019-03-23T21:12:49.667Z,10.39
2019-03-23T21:15:17.996Z,10.34
2019-03-23T21:17:51.339Z,10.33
2019-03-23T21:20:16.365Z,10.36
2019-03-23T21:22:44.688Z,10.38
2019-03-23T21:25:13.556Z,10.39
2019-03-23T21:27:41.857Z,10.40
2019-03-23T21:30:13.183Z,10.43
2019-03-23T21:32:41.746Z,10.46
2019-03-23T21:35:10.324Z,10.39
2019-03-23T21:37:38.816Z,10.30
2019-03-23T21:40:07.604Z,10.29
2019-03-23T21:42:35.941Z,10.28
2019-03-23T21:45:05.782Z,10.28
2019-03-23T21:47:34.102Z,10.26
2019-03-23T21:50:02.409Z,10.25
2019-03-23T21:52:30.986Z,10.23
2019-03-23T21:54:59.290Z,10.19
2019-03-23T21:57:27.621Z,10.16
2019-03-23T21:59:55.991Z,10.13
2019-03-23T22:02:24.315Z,10.14
2019-03-23T22:04:52.609Z,10.12
2019-03-23T22:07:21.213Z,10.13
2019-03-23T22:09:49.515Z,10.11
2019-03-23T22:12:17.842Z,10.14
2019-03-23T22:14:46.445Z,10.13
2019-03-23T22:17:14.747Z,10.11
2019-03-23T22:19:43.051Z,10.06
2019-03-23T22:22:11.688Z,10.04
2019-03-23T22:24:40.005Z,10.02
2019-03-23T22:27:08.290Z,9.95
2019-03-23T22:29:36.919Z,9.94
2019-03-23T22:32:05.268Z,9.94
2019-03-23T22:34:33.874Z,9.91
2019-03-23T22:37:02.170Z,9.94
2019-03-23T22:39:30.527Z,9.96
2019-03-23T22:41:59.214Z,9.98
2019-03-23T22:44:27.535Z,10.03
2019-03-23T22:46:55.819Z,9.98
2019-03-23T22:49:24.449Z,9.91
2019-03-23T22:51:52.773Z,9.90
2019-03-23T22:54:21.421Z,9.91
2019-03-23T22:56:49.997Z,9.89
2019-03-23T22:59:18.282Z,9.88
2019-03-23T23:01:46.956Z,9.86
2019-03-23T23:04:15.429Z,9.77
2019-03-23T23:06:44.034Z,9.77
2019-03-23T23:09:12.313Z,9.72
2019-03-23T23:11:40.636Z,9.69
2019-03-23T23:14:08.929Z,9.63
2019-03-23T23:16:37.206Z,9.57
2019-03-23T23:19:05.555Z,9.51
2019-03-23T23:21:33.852Z,9.43
2019-03-23T23:24:02.189Z,9.32
2019-03-23T23:26:30.481Z,9.24
2019-03-23T23:28:58.798Z,9.17
2019-03-23T23:31:27.084Z,9.17
2019-03-23T23:33:55.390Z,9.18
2019-03-23T23:36:23.685Z,9.11
2019-03-23T23:38:52.636Z,9.06
2019-03-23T23:41:21.019Z,9.06
2019-03-23T23:43:49.339Z,9.08
2019-03-23T23:46:17.662Z,9.13
2019-03-23T23:48:51.302Z,9.15
2019-03-23T23:51:16.013Z,9.10
2019-03-23T23:53:44.314Z,9.08
2019-03-23T23:56:12.617Z,9.08
2019-03-23T23:58:40.914Z,9.03
